Time,TemperatureF,DewpointF,PressureIn,WindDirection,WindDirectionDegrees,WindSpeedMPH,WindSpeedGustMPH,Humidity,HourlyPrecipIn,Conditions,Clouds,dailyrainin,SolarRadiationWatts/m^2,SoftwareType,DateUTC
2013-04-02 00:08:00,50.6,47.0,30.19,SW,225,0.0,1.0,86,0.00,,,0.03,0,weatherlink.com 1.10,2013-04-02 07:08:00,
2013-04-02 00:23:00,50.2,46.0,30.20,SW,225,0.0,0.0,86,0.00,,,0.00,0,weatherlink.com 1.10,2013-04-02 07:23:00,
2013-04-02 00:38:00,49.8,46.0,30.19,SW,225,0.0,0.0,87,0.00,,,0.00,0,weatherlink.com 1.10,2013-04-02 07:38:00,
2013-04-02 00:53:00,49.5,46.0,30.20,SW,225,0.0,1.0,87,0.00,,,0.00,0,weatherlink.com 1.10,2013-04-02 07:53:00,
2013-04-02 01:09:00,49.2,46.0,30.20,SW,225,0.0,0.0,88,0.00,,,0.00,0,weatherlink.com 1.10,2013-04-02 08:09:00,
2013-04-02 01:24:00,48.7,45.0,30.21,SW,225,0.0,0.0,88,0.00,,,0.00,0,weatherlink.com 1.10,2013-04-02 08:24:00,
2013-04-02 01:39:00,48.5,46.0,30.21,SW,225,0.0,1.0,90,0.00,,,0.00,0,weatherlink.com 1.10,2013-04-02 08:39:00,
2013-04-02 01:54:00,48.5,46.0,30.22,SW,225,0.0,1.0,90,0.00,,,0.00,0,weatherlink.com 1.10,2013-04-02 08:54:00,
2013-04-02 02:09:00,48.3,46.0,30.21,SW,225,0.0,0.0,90,0.00,,,0.00,0,weatherlink.com 1.10,2013-04-02 09:09:00,
2013-04-02 02:24:00,47.9,45.0,30.22,SW,225,0.0,0.0,90,0.00,,,0.00,0,weatherlink.com 1.10,2013-04-02 09:24:00,
2013-04-02 02:39:00,47.6,45.0,30.21,SW,225,0.0,0.0,90,0.00,,,0.00,0,weatherlink.com 1.10,2013-04-02 09:39:00,
2013-04-02 02:55:00,47.8,45.0,30.21,SW,224,1.0,3.0,91,0.00,,,0.00,0,weatherlink.com 1.10,2013-04-02 09:55:00,
2013-04-02 03:09:00,48.1,46.0,30.21,SW,223,0.0,1.0,91,0.00,,,0.00,0,weatherlink.com 1.10,2013-04-02 10:09:00,
2013-04-02 03:24:00,48.1,45.0,30.21,SW,223,0.0,1.0,90,0.00,,,0.00,0,weatherlink.com 1.10,2013-04-02 10:24:00,
2013-04-02 03:39:00,47.7,45.0,30.20,SW,223,0.0,0.0,91,0.00,,,0.00,0,weatherlink.com 1.10,2013-04-02 10:39:00,
2013-04-02 03:54:00,47.1,45.0,30.20,SW,223,0.0,0.0,91,0.00,,,0.00,0,weatherlink.com 1.10,2013-04-02 10:54:00,
2013-04-02 04:09:00,46.7,44.0,30.20,SW,223,0.0,0.0,91,0.00,,,0.00,0,weatherlink.com 1.10,2013-04-02 11:09:00,
2013-04-02 04:24:00,46.4,44.0,30.20,SW,223,0.0,0.0,92,0.00,,,0.00,0,weatherlink.com 1.10,2013-04-02 11:24:00,
2013-04-02 04:39:00,46.1,44.0,30.20,SW,223,0.0,0.0,92,0.00,,,0.00,0,weatherlink.com 1.10,2013-04-02 11:39:00,
2013-04-02 04:54:00,45.8,44.0,30.20,SW,223,0.0,0.0,92,0.00,,,0.00,0,weatherlink.com 1.10,2013-04-02 11:54:00,
2013-04-02 05:09:00,45.4,43.0,30.21,SW,223,0.0,0.0,92,0.00,,,0.00,0,weatherlink.com 1.10,2013-04-02 12:09:00,
2013-04-02 05:24:00,45.0,43.0,30.21,SW,223,0.0,0.0,92,0.00,,,0.00,0,weatherlink.com 1.10,2013-04-02 12:24:00,
2013-04-02 05:39:00,45.0,43.0,30.21,SW,223,0.0,0.0,93,0.00,,,0.00,0,weatherlink.com 1.10,2013-04-02 12:39:00,
2013-04-02 05:54:00,44.8,43.0,30.21,SW,223,0.0,0.0,93,0.00,,,0.00,0,weatherlink.com 1.10,2013-04-02 12:54:00,
2013-04-02 06:09:00,44.6,43.0,30.21,SW,223,0.0,0.0,93,0.00,,,0.00,0,weatherlink.com 1.10,2013-04-02 13:09:00,
2013-04-02 06:24:00,44.5,43.0,30.22,SW,223,0.0,0.0,94,0.00,,,0.00,0,weatherlink.com 1.10,2013-04-02 13:24:00,
2013-04-02 06:39:00,44.4,43.0,30.22,SW,223,0.0,0.0,93,0.00,,,0.00,0,weatherlink.com 1.10,2013-04-02 13:39:00,
2013-04-02 06:54:00,44.2,43.0,30.22,SW,223,0.0,0.0,94,0.00,,,0.00,5,weatherlink.com 1.10,2013-04-02 13:54:00,
2013-04-02 07:09:00,44.6,43.0,30.22,SW,223,0.0,1.0,94,0.00,,,0.00,14,weatherlink.com 1.10,2013-04-02 14:09:00,
2013-04-02 07:24:00,45.2,44.0,30.22,SW,223,0.0,1.0,94,0.00,,,0.00,26,weatherlink.com 1.10,2013-04-02 14:24:00,
2013-04-02 07:39:00,46.1,45.0,30.22,SW,219,0.0,0.0,94,0.00,,,0.00,32,weatherlink.com 1.10,2013-04-02 14:39:00,
2013-04-02 07:54:00,46.8,45.0,30.22,SW,219,0.0,0.0,93,0.00,,,0.00,70,weatherlink.com 1.10,2013-04-02 14:54:00,
2013-04-02 08:09:00,47.3,45.0,30.23,SW,219,0.0,1.0,93,0.00,,,0.00,171,weatherlink.com 1.10,2013-04-02 15:09:00,
2013-04-02 08:24:00,49.4,48.0,30.23,SW,219,0.0,0.0,93,0.00,,,0.00,332,weatherlink.com 1.10,2013-04-02 15:24:00,
2013-04-02 08:39:00,50.7,48.0,30.23,SW,219,0.0,3.0,89,0.00,,,0.00,176,weatherlink.com 1.10,2013-04-02 15:39:00,
2013-04-02 08:55:00,51.2,48.0,30.22,SW,219,0.0,1.0,88,0.00,,,0.00,151,weatherlink.com 1.10,2013-04-02 15:55:00,
2013-04-02 09:09:00,51.4,48.0,30.22,West,261,0.0,4.0,88,0.00,,,0.00,132,weatherlink.com 1.10,2013-04-02 16:09:00,
2013-04-02 09:24:00,51.8,48.0,30.23,West,261,0.0,4.0,87,0.00,,,0.00,357,weatherlink.com 1.10,2013-04-02 16:24:00,
2013-04-02 09:40:00,52.5,49.0,30.23,West,261,0.0,3.0,86,0.00,,,0.00,237,weatherlink.com 1.10,2013-04-02 16:40:00,
2013-04-02 09:55:00,53.8,49.0,30.22,WSW,249,0.0,3.0,85,0.00,,,0.00,438,weatherlink.com 1.10,2013-04-02 16:55:00,
2013-04-02 10:10:00,55.6,50.0,30.22,SSE,155,0.0,3.0,80,0.00,,,0.00,506,weatherlink.com 1.10,2013-04-02 17:10:00,
2013-04-02 10:25:00,56.2,49.0,30.22,SSE,167,0.0,3.0,78,0.00,,,0.00,373,weatherlink.com 1.10,2013-04-02 17:25:00,
2013-04-02 10:40:00,56.4,50.0,30.22,West,266,0.0,4.0,78,0.00,,,0.00,705,weatherlink.com 1.10,2013-04-02 17:40:00,
2013-04-02 10:55:00,57.1,50.0,30.22,WSW,254,3.0,7.0,77,0.00,,,0.00,717,weatherlink.com 1.10,2013-04-02 17:55:00,
2013-04-02 11:10:00,58.6,51.0,30.22,SSW,194,0.0,5.0,75,0.00,,,0.00,722,weatherlink.com 1.10,2013-04-02 18:10:00,
2013-04-02 11:25:00,60.2,50.0,30.22,WSW,255,0.0,4.0,70,0.00,,,0.00,524,weatherlink.com 1.10,2013-04-02 18:25:00,
2013-04-02 11:40:00,61.3,51.0,30.22,West,259,0.0,6.0,69,0.00,,,0.00,819,weatherlink.com 1.10,2013-04-02 18:40:00,
2013-04-02 11:55:00,61.9,51.0,30.22,West,270,1.0,8.0,67,0.00,,,0.00,838,weatherlink.com 1.10,2013-04-02 18:55:00,
2013-04-02 12:25:00,63.7,52.0,30.21,WNW,282,2.0,9.0,67,0.00,,,0.00,870,weatherlink.com 1.10,2013-04-02 19:25:00,
2013-04-02 12:40:00,64.6,52.0,30.21,SW,232,1.0,7.0,63,0.00,,,0.00,875,weatherlink.com 1.10,2013-04-02 19:40:00,
2013-04-02 13:10:00,67.6,51.0,30.19,West,262,0.0,5.0,56,0.00,,,0.00,664,weatherlink.com 1.10,2013-04-02 20:10:00,
2013-04-02 13:25:00,68.4,51.0,30.18,West,265,0.0,5.0,54,0.00,,,0.00,854,weatherlink.com 1.10,2013-04-02 20:25:00,
2013-04-02 13:40:00,67.8,52.0,30.18,WNW,288,1.0,7.0,57,0.00,,,0.00,828,weatherlink.com 1.10,2013-04-02 20:40:00,
2013-04-02 13:55:00,68.6,52.0,30.18,WSW,249,4.0,7.0,56,0.00,,,0.00,867,weatherlink.com 1.10,2013-04-02 20:55:00,
2013-04-02 14:10:00,68.1,54.0,30.17,West,273,2.0,7.0,60,0.00,,,0.00,904,weatherlink.com 1.10,2013-04-02 21:10:00,
2013-04-02 14:26:00,69.3,53.0,30.16,SSE,164,0.0,5.0,56,0.00,,,0.00,550,weatherlink.com 1.10,2013-04-02 21:26:00,
2013-04-02 14:41:00,70.8,53.0,30.16,WSW,254,2.0,6.0,54,0.00,,,0.00,584,weatherlink.com 1.10,2013-04-02 21:41:00,
2013-04-02 14:56:00,69.8,52.0,30.16,West,281,1.0,8.0,54,0.00,,,0.00,411,weatherlink.com 1.10,2013-04-02 21:56:00,
2013-04-02 15:11:00,69.8,53.0,30.15,West,275,1.0,6.0,55,0.00,,,0.00,515,weatherlink.com 1.10,2013-04-02 22:11:00,
2013-04-02 15:41:00,72.0,53.0,30.15,West,261,4.0,9.0,51,0.00,,,0.00,411,weatherlink.com 1.10,2013-04-02 22:41:00,
2013-04-02 15:58:00,70.1,54.0,30.15,West,281,6.0,12.0,57,0.00,,,0.00,719,weatherlink.com 1.10,2013-04-02 22:58:00,
2013-04-02 17:26:00,69.9,53.0,30.12,West,259,4.0,11.0,56,0.00,,,0.00,295,weatherlink.com 1.10,2013-04-03 00:26:00,
2013-04-02 17:41:00,69.9,54.0,30.12,WNW,290,3.0,9.0,58,0.00,,,0.00,329,weatherlink.com 1.10,2013-04-03 00:41:00,
2013-04-02 17:56:00,69.2,54.0,30.12,West,260,4.0,10.0,58,0.00,,,0.00,236,weatherlink.com 1.10,2013-04-03 00:56:00,
2013-04-02 18:11:00,68.4,53.0,30.13,West,261,7.0,10.0,59,0.00,,,0.00,183,weatherlink.com 1.10,2013-04-03 01:11:00,
2013-04-02 18:26:00,69.0,54.0,30.12,WSW,248,3.0,7.0,59,0.00,,,0.00,139,weatherlink.com 1.10,2013-04-03 01:26:00,
2013-04-02 18:41:00,68.3,53.0,30.12,West,270,3.0,7.0,58,0.00,,,0.00,70,weatherlink.com 1.10,2013-04-03 01:41:00,
2013-04-02 18:56:00,67.0,52.0,30.12,WSW,247,3.0,8.0,59,0.00,,,0.00,44,weatherlink.com 1.10,2013-04-03 01:56:00,
2013-04-02 19:11:00,66.1,52.0,30.12,WSW,243,7.0,7.0,60,0.00,,,0.00,25,weatherlink.com 1.10,2013-04-03 02:11:00,
2013-04-02 19:26:00,64.2,52.0,30.12,WNW,286,6.0,8.0,64,0.00,,,0.00,5,weatherlink.com 1.10,2013-04-03 02:26:00,
2013-04-02 19:41:00,62.8,52.0,30.13,West,279,4.0,4.0,68,0.00,,,0.00,0,weatherlink.com 1.10,2013-04-03 02:41:00,
2013-04-02 20:11:00,60.8,52.0,30.13,West,269,3.0,5.0,72,0.00,,,0.00,0,weatherlink.com 1.10,2013-04-03 03:11:00,
2013-04-02 20:26:00,60.0,51.0,30.14,West,272,1.0,7.0,73,0.00,,,0.00,0,weatherlink.com 1.10,2013-04-03 03:26:00,
2013-04-02 20:41:00,59.5,51.0,30.15,WSW,252,0.0,6.0,74,0.00,,,0.00,0,weatherlink.com 1.10,2013-04-03 03:41:00,
2013-04-02 20:56:00,59.0,51.0,30.15,WSW,247,0.0,2.0,75,0.00,,,0.00,0,weatherlink.com 1.10,2013-04-03 03:56:00,
2013-04-02 21:11:00,58.5,51.0,30.16,WSW,247,0.0,1.0,76,0.00,,,0.00,0,weatherlink.com 1.10,2013-04-03 04:11:00,
2013-04-02 21:26:00,57.9,51.0,30.16,WSW,247,1.0,1.0,77,0.00,,,0.00,0,weatherlink.com 1.10,2013-04-03 04:26:00,
2013-04-02 21:41:00,57.5,51.0,30.17,WSW,247,0.0,1.0,79,0.00,,,0.00,0,weatherlink.com 1.10,2013-04-03 04:41:00,
2013-04-02 21:56:00,56.9,51.0,30.18,WSW,247,0.0,1.0,80,0.00,,,0.00,0,weatherlink.com 1.10,2013-04-03 04:56:00,
2013-04-02 22:41:00,56.2,50.0,30.18,West,278,0.0,0.0,79,0.00,,,0.00,0,weatherlink.com 1.10,2013-04-03 05:41:00,
2013-04-02 22:56:00,55.7,50.0,30.18,West,278,3.0,4.0,81,0.00,,,0.00,0,weatherlink.com 1.10,2013-04-03 05:56:00,
2013-04-02 23:11:00,54.9,50.0,30.18,West,277,1.0,4.0,82,0.00,,,0.00,0,weatherlink.com 1.10,2013-04-03 06:11:00,
2013-04-02 23:26:00,53.9,49.0,30.18,West,277,2.0,4.0,84,0.00,,,0.00,0,weatherlink.com 1.10,2013-04-03 06:26:00,
2013-04-02 23:41:00,53.0,49.0,30.19,WNW,284,4.0,7.0,87,0.00,,,0.00,0,weatherlink.com 1.10,2013-04-03 06:41:00,
2013-04-02 23:56:00,52.3,49.0,30.18,West,273,2.0,5.0,88,0.00,,,0.00,0,weatherlink.com 1.10,2013-04-03 06:56:00,